createdAt,value
2022-10-15T00:04:54.545Z,15.18
2022-10-15T00:12:29.577Z,14.63
2022-10-15T00:27:38.867Z,14.40
2022-10-15T00:35:12.578Z,13.82
2022-10-15T00:42:47.549Z,14.20
2022-10-15T00:57:59.698Z,12.57
2022-10-15T01:05:34.551Z,12.93
2022-10-15T01:13:20.463Z,12.80
2022-10-15T01:21:11.211Z,12.13
2022-10-15T01:28:54.517Z,13.50
2022-10-15T01:36:35.535Z,13.15
2022-10-15T01:44:13.035Z,12.20
2022-10-15T01:51:50.821Z,14.15
2022-10-15T01:59:30.122Z,15.07
2022-10-15T02:07:15.589Z,12.95
2022-10-15T02:22:35.725Z,13.77
2022-10-15T02:30:11.213Z,13.20
2022-10-15T02:37:52.759Z,14.10
2022-10-15T02:45:26.423Z,14.00
2022-10-15T02:53:02.896Z,13.23
2022-10-15T03:00:37.053Z,12.00
2022-10-15T03:08:12.048Z,14.07
2022-10-15T03:15:45.611Z,12.77
2022-10-15T03:23:20.854Z,13.40
2022-10-15T03:30:54.490Z,13.45
2022-10-15T03:38:29.531Z,14.10
2022-10-15T03:53:38.814Z,12.82
2022-10-15T04:01:13.992Z,13.43
2022-10-15T04:08:49.443Z,12.90
2022-10-15T04:16:23.395Z,12.23
2022-10-15T04:23:58.639Z,12.35
2022-10-15T04:31:32.410Z,12.63
2022-10-15T04:39:09.739Z,12.23
2022-10-15T04:46:45.938Z,11.82
2022-10-15T04:54:21.332Z,12.18
2022-10-15T05:01:55.171Z,11.90
2022-10-15T05:09:30.907Z,13.40
2022-10-15T05:17:04.605Z,12.05
2022-10-15T05:24:39.623Z,11.73
2022-10-15T05:39:49.619Z,11.32
2022-10-15T05:47:23.580Z,10.02
2022-10-15T05:54:58.874Z,10.73
2022-10-15T06:10:09.280Z,10.40
2022-10-15T06:17:42.913Z,10.65
2022-10-15T06:25:17.905Z,11.02
2022-10-15T06:40:27.073Z,11.52
2022-10-15T06:48:01.102Z,11.85
2022-10-15T06:55:40.184Z,11.20
2022-10-15T07:03:14.716Z,11.45
2022-10-15T07:10:49.838Z,11.80
2022-10-15T07:26:00.096Z,11.90
2022-10-15T07:33:34.863Z,14.40
2022-10-15T07:41:11.941Z,12.48
2022-10-15T07:48:45.783Z,11.38
2022-10-15T07:56:21.665Z,12.48
2022-10-15T08:03:55.286Z,13.93
2022-10-15T08:11:30.623Z,10.30
2022-10-15T08:19:04.602Z,10.32
2022-10-15T08:26:39.870Z,10.57
2022-10-15T08:34:13.580Z,11.43
2022-10-15T08:41:51.712Z,9.35
2022-10-15T08:49:35.043Z,7.18
2022-10-15T08:57:23.345Z,6.50
2022-10-15T09:05:08.041Z,5.78
2022-10-15T09:12:51.404Z,6.27
2022-10-15T09:20:31.429Z,6.25
2022-10-15T09:28:11.394Z,5.55
2022-10-15T09:35:51.108Z,8.50
2022-10-15T09:43:31.178Z,6.13
2022-10-15T09:51:09.335Z,7.20
2022-10-15T09:58:51.184Z,6.57
2022-10-15T10:06:25.692Z,6.20
2022-10-15T10:14:02.280Z,6.00
2022-10-15T10:21:37.413Z,6.20
2022-10-15T10:29:32.923Z,6.47
2022-10-15T10:37:10.184Z,5.85
2022-10-15T10:44:47.051Z,5.80
2022-10-15T10:52:24.206Z,5.20
2022-10-15T10:59:59.438Z,4.72
2022-10-15T11:07:42.533Z,5.40
2022-10-15T11:15:29.692Z,5.30
2022-10-15T11:23:16.927Z,3.95
2022-10-15T11:31:00.000Z,4.03
2022-10-15T11:38:43.237Z,4.15
2022-10-15T11:46:25.970Z,3.95
2022-10-15T11:54:18.771Z,4.13
2022-10-15T12:01:59.532Z,3.95
2022-10-15T12:09:37.932Z,3.90
2022-10-15T12:17:23.093Z,3.65
2022-10-15T12:24:57.602Z,3.38
2022-10-15T12:32:39.122Z,3.03
2022-10-15T12:40:28.261Z,3.05
2022-10-15T12:48:31.412Z,3.20
2022-10-15T12:56:22.774Z,3.08
2022-10-15T13:04:00.208Z,2.92
2022-10-15T13:11:38.348Z,2.58
2022-10-15T13:19:20.679Z,2.63
2022-10-15T13:26:55.793Z,2.63
2022-10-15T13:34:33.224Z,2.58
2022-10-15T13:42:14.960Z,2.85
2022-10-15T13:49:50.183Z,2.85
2022-10-15T13:57:23.922Z,3.17
2022-10-15T14:05:16.355Z,2.50
2022-10-15T14:12:52.125Z,3.20
2022-10-15T14:20:27.888Z,2.55
2022-10-15T14:28:02.379Z,2.15
2022-10-15T14:35:38.715Z,2.40
2022-10-15T14:43:18.036Z,2.20
2022-10-15T14:50:53.639Z,1.73
2022-10-15T14:58:29.677Z,1.40
2022-10-15T15:06:04.787Z,1.60
2022-10-15T15:13:40.893Z,1.75
2022-10-15T15:21:18.745Z,2.00
2022-10-15T15:28:52.652Z,1.60
2022-10-15T15:36:27.766Z,1.80
2022-10-15T15:51:36.818Z,1.73
2022-10-15T16:06:48.754Z,1.67
2022-10-15T16:14:22.465Z,1.80
2022-10-15T16:21:57.703Z,1.63
2022-10-15T16:29:31.355Z,1.92
2022-10-15T16:37:08.310Z,3.28
2022-10-15T16:44:42.042Z,2.85
2022-10-15T16:52:17.314Z,3.20
2022-10-15T16:59:51.534Z,3.80
2022-10-15T17:07:27.028Z,4.43
2022-10-15T17:15:01.081Z,3.80
2022-10-15T17:22:37.418Z,4.18
2022-10-15T17:30:11.967Z,4.80
2022-10-15T17:37:48.443Z,5.43
2022-10-15T17:45:22.834Z,6.28
2022-10-15T17:52:59.234Z,5.63
2022-10-15T18:00:33.070Z,5.90
2022-10-15T18:08:09.096Z,5.65
2022-10-15T18:15:46.111Z,5.25
2022-10-15T18:23:21.576Z,4.90
2022-10-15T18:30:55.283Z,5.50
2022-10-15T18:38:30.898Z,5.20
2022-10-15T18:46:04.863Z,4.50
2022-10-15T18:53:41.442Z,4.03
2022-10-15T19:01:26.214Z,3.92
2022-10-15T19:09:02.912Z,4.00
2022-10-15T19:16:37.318Z,3.80
2022-10-15T19:24:12.715Z,3.90
2022-10-15T19:31:48.365Z,4.10
2022-10-15T19:39:25.706Z,4.05
2022-10-15T19:46:59.407Z,4.03
2022-10-15T19:54:35.620Z,4.40
2022-10-15T20:02:11.709Z,3.83
2022-10-15T20:09:46.970Z,3.30
2022-10-15T20:17:20.639Z,3.22
2022-10-15T20:24:55.742Z,3.40
2022-10-15T20:40:10.998Z,2.58
2022-10-15T20:47:49.687Z,2.60
2022-10-15T20:55:25.529Z,2.80
2022-10-15T21:02:59.472Z,2.58
2022-10-15T21:10:34.915Z,2.60
2022-10-15T21:18:08.658Z,2.72
2022-10-15T21:25:43.780Z,2.83
2022-10-15T21:33:17.555Z,3.22
2022-10-15T21:40:53.177Z,2.70
2022-10-15T21:48:28.855Z,2.60
2022-10-15T21:56:05.654Z,2.70
2022-10-15T22:03:39.832Z,3.08
2022-10-15T22:11:17.193Z,2.50
2022-10-15T22:18:51.308Z,2.72
2022-10-15T22:26:28.727Z,2.47
2022-10-15T22:34:02.624Z,2.22
2022-10-15T22:41:40.058Z,2.30
2022-10-15T22:49:16.226Z,2.30
2022-10-15T22:56:51.595Z,2.50
2022-10-15T23:04:25.275Z,2.20
2022-10-15T23:12:00.348Z,2.22
2022-10-15T23:27:10.140Z,2.47
2022-10-15T23:34:43.803Z,2.15
2022-10-15T23:42:18.913Z,2.20
2022-10-15T23:49:53.254Z,2.20
2022-10-15T23:57:28.476Z,2.17
